sensor_id;sensor_type;location;lat;lon;timestamp;P1;durP1;ratioP1;P2;durP2;ratioP2
11933;SDS011;6026;48.784;9.198;2024-02-15T00:02:09;0.60;;;0.60;;
11933;SDS011;6026;48.784;9.198;2024-02-15T00:04:35;0.70;;;0.70;;
11933;SDS011;6026;48.784;9.198;2024-02-15T00:07:01;0.77;;;0.77;;
11933;SDS011;6026;48.784;9.198;2024-02-15T00:09:27;0.70;;;0.70;;
11933;SDS011;6026;48.784;9.198;2024-02-15T00:11:52;0.70;;;0.70;;
11933;SDS011;6026;48.784;9.198;2024-02-15T00:14:18;0.70;;;0.70;;
11933;SDS011;6026;48.784;9.198;2024-02-15T00:16:44;0.70;;;0.70;;
11933;SDS011;6026;48.784;9.198;2024-02-15T00:19:10;0.60;;;0.60;;
11933;SDS011;6026;48.784;9.198;2024-02-15T00:21:36;0.70;;;0.70;;
11933;SDS011;6026;48.784;9.198;2024-02-15T00:24:02;0.60;;;0.60;;
11933;SDS011;6026;48.784;9.198;2024-02-15T00:26:27;0.80;;;0.80;;
11933;SDS011;6026;48.784;9.198;2024-02-15T00:28:53;0.73;;;0.73;;
11933;SDS011;6026;48.784;9.198;2024-02-15T00:31:18;0.80;;;0.80;;
11933;SDS011;6026;48.784;9.198;2024-02-15T00:33:44;0.60;;;0.60;;
11933;SDS011;6026;48.784;9.198;2024-02-15T00:36:10;0.80;;;0.80;;
11933;SDS011;6026;48.784;9.198;2024-02-15T00:38:35;0.70;;;0.70;;
11933;SDS011;6026;48.784;9.198;2024-02-15T00:41:02;0.60;;;0.60;;
11933;SDS011;6026;48.784;9.198;2024-02-15T00:43:27;0.70;;;0.70;;
11933;SDS011;6026;48.784;9.198;2024-02-15T00:45:53;0.67;;;0.67;;
11933;SDS011;6026;48.784;9.198;2024-02-15T00:48:18;0.70;;;0.70;;
11933;SDS011;6026;48.784;9.198;2024-02-15T00:50:44;0.80;;;0.80;;
11933;SDS011;6026;48.784;9.198;2024-02-15T00:53:09;0.63;;;0.63;;
11933;SDS011;6026;48.784;9.198;2024-02-15T00:55:35;0.77;;;0.77;;
11933;SDS011;6026;48.784;9.198;2024-02-15T00:58:01;0.70;;;0.70;;
11933;SDS011;6026;48.784;9.198;2024-02-15T01:00:27;0.70;;;0.70;;
11933;SDS011;6026;48.784;9.198;2024-02-15T01:02:53;0.70;;;0.70;;
11933;SDS011;6026;48.784;9.198;2024-02-15T01:05:19;0.70;;;0.70;;
11933;SDS011;6026;48.784;9.198;2024-02-15T01:07:45;0.80;;;0.80;;
11933;SDS011;6026;48.784;9.198;2024-02-15T01:10:10;0.70;;;0.70;;
11933;SDS011;6026;48.784;9.198;2024-02-15T01:12:36;0.50;;;0.50;;
11933;SDS011;6026;48.784;9.198;2024-02-15T01:15:02;0.70;;;0.70;;
11933;SDS011;6026;48.784;9.198;2024-02-15T01:17:27;0.80;;;0.80;;
11933;SDS011;6026;48.784;9.198;2024-02-15T01:19:53;0.70;;;0.70;;
11933;SDS011;6026;48.784;9.198;2024-02-15T01:22:19;0.70;;;0.70;;
11933;SDS011;6026;48.784;9.198;2024-02-15T01:24:48;0.77;;;0.77;;
11933;SDS011;6026;48.784;9.198;2024-02-15T01:27:14;0.77;;;0.77;;
11933;SDS011;6026;48.784;9.198;2024-02-15T01:29:39;0.70;;;0.70;;
11933;SDS011;6026;48.784;9.198;2024-02-15T01:32:05;0.60;;;0.60;;
11933;SDS011;6026;48.784;9.198;2024-02-15T01:34:30;0.50;;;0.50;;
11933;SDS011;6026;48.784;9.198;2024-02-15T01:36:56;0.60;;;0.60;;
11933;SDS011;6026;48.784;9.198;2024-02-15T01:39:22;0.60;;;0.60;;
11933;SDS011;6026;48.784;9.198;2024-02-15T01:41:48;0.80;;;0.80;;
11933;SDS011;6026;48.784;9.198;2024-02-15T01:44:16;0.70;;;0.70;;
11933;SDS011;6026;48.784;9.198;2024-02-15T01:46:43;0.70;;;0.70;;
11933;SDS011;6026;48.784;9.198;2024-02-15T01:49:11;0.63;;;0.63;;
11933;SDS011;6026;48.784;9.198;2024-02-15T01:51:37;0.70;;;0.70;;
11933;SDS011;6026;48.784;9.198;2024-02-15T01:54:03;0.43;;;0.43;;
11933;SDS011;6026;48.784;9.198;2024-02-15T01:56:29;0.53;;;0.53;;
11933;SDS011;6026;48.784;9.198;2024-02-15T01:58:56;0.60;;;0.60;;
11933;SDS011;6026;48.784;9.198;2024-02-15T02:01:22;0.63;;;0.63;;
11933;SDS011;6026;48.784;9.198;2024-02-15T02:03:48;0.60;;;0.60;;
11933;SDS011;6026;48.784;9.198;2024-02-15T02:06:14;0.60;;;0.60;;
11933;SDS011;6026;48.784;9.198;2024-02-15T02:08:40;0.60;;;0.60;;
11933;SDS011;6026;48.784;9.198;2024-02-15T02:11:06;0.70;;;0.70;;
11933;SDS011;6026;48.784;9.198;2024-02-15T02:13:32;0.60;;;0.60;;
11933;SDS011;6026;48.784;9.198;2024-02-15T02:15:57;0.70;;;0.70;;
11933;SDS011;6026;48.784;9.198;2024-02-15T02:18:24;0.50;;;0.50;;
11933;SDS011;6026;48.784;9.198;2024-02-15T02:20:50;0.50;;;0.50;;
11933;SDS011;6026;48.784;9.198;2024-02-15T02:23:16;0.50;;;0.50;;
11933;SDS011;6026;48.784;9.198;2024-02-15T02:25:45;0.50;;;0.50;;
11933;SDS011;6026;48.784;9.198;2024-02-15T02:28:14;0.40;;;0.40;;
11933;SDS011;6026;48.784;9.198;2024-02-15T02:30:41;0.50;;;0.50;;
11933;SDS011;6026;48.784;9.198;2024-02-15T02:33:10;0.73;;;0.73;;
11933;SDS011;6026;48.784;9.198;2024-02-15T02:35:43;0.40;;;0.40;;
11933;SDS011;6026;48.784;9.198;2024-02-15T02:38:09;0.70;;;0.70;;
11933;SDS011;6026;48.784;9.198;2024-02-15T02:40:35;0.70;;;0.70;;
11933;SDS011;6026;48.784;9.198;2024-02-15T02:43:01;0.60;;;0.60;;
11933;SDS011;6026;48.784;9.198;2024-02-15T02:45:27;0.40;;;0.40;;
11933;SDS011;6026;48.784;9.198;2024-02-15T02:47:52;0.40;;;0.40;;
11933;SDS011;6026;48.784;9.198;2024-02-15T02:50:19;0.57;;;0.57;;
11933;SDS011;6026;48.784;9.198;2024-02-15T02:52:45;0.57;;;0.57;;
11933;SDS011;6026;48.784;9.198;2024-02-15T02:55:13;0.47;;;0.47;;
11933;SDS011;6026;48.784;9.198;2024-02-15T02:57:39;0.40;;;0.40;;
11933;SDS011;6026;48.784;9.198;2024-02-15T03:00:05;0.60;;;0.60;;
11933;SDS011;6026;48.784;9.198;2024-02-15T03:02:36;0.50;;;0.50;;
11933;SDS011;6026;48.784;9.198;2024-02-15T03:05:03;0.60;;;0.60;;
11933;SDS011;6026;48.784;9.198;2024-02-15T03:07:32;0.30;;;0.30;;
11933;SDS011;6026;48.784;9.198;2024-02-15T03:09:58;0.33;;;0.33;;
11933;SDS011;6026;48.784;9.198;2024-02-15T03:12:23;0.50;;;0.50;;
11933;SDS011;6026;48.784;9.198;2024-02-15T03:14:51;0.50;;;0.50;;
11933;SDS011;6026;48.784;9.198;2024-02-15T03:17:17;0.50;;;0.50;;
11933;SDS011;6026;48.784;9.198;2024-02-15T03:19:43;0.30;;;0.30;;
11933;SDS011;6026;48.784;9.198;2024-02-15T03:22:08;0.53;;;0.53;;
11933;SDS011;6026;48.784;9.198;2024-02-15T03:24:34;0.40;;;0.40;;
11933;SDS011;6026;48.784;9.198;2024-02-15T03:26:59;0.60;;;0.60;;
11933;SDS011;6026;48.784;9.198;2024-02-15T03:29:26;0.33;;;0.33;;
11933;SDS011;6026;48.784;9.198;2024-02-15T03:31:51;0.37;;;0.37;;
11933;SDS011;6026;48.784;9.198;2024-02-15T03:34:18;0.50;;;0.50;;
11933;SDS011;6026;48.784;9.198;2024-02-15T03:36:46;0.40;;;0.40;;
11933;SDS011;6026;48.784;9.198;2024-02-15T03:39:18;0.50;;;0.50;;
11933;SDS011;6026;48.784;9.198;2024-02-15T03:41:44;0.50;;;0.50;;
11933;SDS011;6026;48.784;9.198;2024-02-15T03:44:13;0.40;;;0.40;;
11933;SDS011;6026;48.784;9.198;2024-02-15T03:46:39;0.60;;;0.60;;
11933;SDS011;6026;48.784;9.198;2024-02-15T03:49:05;0.47;;;0.47;;
11933;SDS011;6026;48.784;9.198;2024-02-15T03:51:33;0.47;;;0.47;;
11933;SDS011;6026;48.784;9.198;2024-02-15T03:53:59;0.40;;;0.40;;
11933;SDS011;6026;48.784;9.198;2024-02-15T03:56:24;0.60;;;0.60;;
11933;SDS011;6026;48.784;9.198;2024-02-15T03:58:50;0.60;;;0.60;;
11933;SDS011;6026;48.784;9.198;2024-02-15T04:01:16;0.80;;;0.80;;
11933;SDS011;6026;48.784;9.198;2024-02-15T04:03:42;0.40;;;0.40;;
11933;SDS011;6026;48.784;9.198;2024-02-15T04:06:07;0.50;;;0.50;;
11933;SDS011;6026;48.784;9.198;2024-02-15T04:08:34;1.53;;;1.43;;
11933;SDS011;6026;48.784;9.198;2024-02-15T04:11:04;0.30;;;0.30;;
11933;SDS011;6026;48.784;9.198;2024-02-15T04:13:32;0.77;;;0.77;;
11933;SDS011;6026;48.784;9.198;2024-02-15T04:15:58;0.40;;;0.40;;
11933;SDS011;6026;48.784;9.198;2024-02-15T04:18:24;0.40;;;0.40;;
11933;SDS011;6026;48.784;9.198;2024-02-15T04:20:54;0.30;;;0.30;;
11933;SDS011;6026;48.784;9.198;2024-02-15T04:23:20;0.40;;;0.40;;
11933;SDS011;6026;48.784;9.198;2024-02-15T04:25:46;0.40;;;0.40;;
11933;SDS011;6026;48.784;9.198;2024-02-15T04:28:16;0.50;;;0.50;;
11933;SDS011;6026;48.784;9.198;2024-02-15T04:30:41;0.40;;;0.40;;
11933;SDS011;6026;48.784;9.198;2024-02-15T04:33:07;0.40;;;0.40;;
11933;SDS011;6026;48.784;9.198;2024-02-15T04:35:33;0.57;;;0.57;;
11933;SDS011;6026;48.784;9.198;2024-02-15T04:37:59;0.60;;;0.60;;
11933;SDS011;6026;48.784;9.198;2024-02-15T04:40:24;0.40;;;0.40;;
11933;SDS011;6026;48.784;9.198;2024-02-15T04:42:50;0.60;;;0.60;;
11933;SDS011;6026;48.784;9.198;2024-02-15T04:45:16;0.40;;;0.40;;
11933;SDS011;6026;48.784;9.198;2024-02-15T04:47:41;0.43;;;0.43;;
11933;SDS011;6026;48.784;9.198;2024-02-15T04:50:07;0.50;;;0.50;;
11933;SDS011;6026;48.784;9.198;2024-02-15T04:52:34;0.50;;;0.50;;
11933;SDS011;6026;48.784;9.198;2024-02-15T04:54:59;0.40;;;0.40;;
11933;SDS011;6026;48.784;9.198;2024-02-15T04:57:25;0.60;;;0.60;;
11933;SDS011;6026;48.784;9.198;2024-02-15T04:59:53;0.40;;;0.40;;
11933;SDS011;6026;48.784;9.198;2024-02-15T05:02:24;0.50;;;0.50;;
11933;SDS011;6026;48.784;9.198;2024-02-15T05:04:50;0.30;;;0.30;;
11933;SDS011;6026;48.784;9.198;2024-02-15T05:07:21;0.70;;;0.70;;
11933;SDS011;6026;48.784;9.198;2024-02-15T05:09:47;0.40;;;0.40;;
11933;SDS011;6026;48.784;9.198;2024-02-15T05:12:21;0.40;;;0.40;;
11933;SDS011;6026;48.784;9.198;2024-02-15T05:14:47;0.47;;;0.47;;
11933;SDS011;6026;48.784;9.198;2024-02-15T05:17:13;0.50;;;0.50;;
11933;SDS011;6026;48.784;9.198;2024-02-15T05:19:39;0.30;;;0.30;;
11933;SDS011;6026;48.784;9.198;2024-02-15T05:22:04;0.60;;;0.60;;
11933;SDS011;6026;48.784;9.198;2024-02-15T05:24:31;0.60;;;0.60;;
11933;SDS011;6026;48.784;9.198;2024-02-15T05:26:57;0.40;;;0.40;;
11933;SDS011;6026;48.784;9.198;2024-02-15T05:29:22;0.50;;;0.50;;
11933;SDS011;6026;48.784;9.198;2024-02-15T05:31:48;0.60;;;0.60;;
11933;SDS011;6026;48.784;9.198;2024-02-15T05:34:16;0.33;;;0.33;;
11933;SDS011;6026;48.784;9.198;2024-02-15T05:36:42;0.60;;;0.60;;
11933;SDS011;6026;48.784;9.198;2024-02-15T05:39:08;0.60;;;0.60;;
11933;SDS011;6026;48.784;9.198;2024-02-15T05:41:36;0.40;;;0.40;;
11933;SDS011;6026;48.784;9.198;2024-02-15T05:44:02;0.63;;;0.63;;
11933;SDS011;6026;48.784;9.198;2024-02-15T05:46:31;0.50;;;0.50;;
11933;SDS011;6026;48.784;9.198;2024-02-15T05:48:57;0.57;;;0.57;;
11933;SDS011;6026;48.784;9.198;2024-02-15T05:51:22;0.50;;;0.50;;
11933;SDS011;6026;48.784;9.198;2024-02-15T05:53:48;0.50;;;0.50;;
11933;SDS011;6026;48.784;9.198;2024-02-15T05:56:14;0.60;;;0.60;;
11933;SDS011;6026;48.784;9.198;2024-02-15T05:58:41;0.50;;;0.50;;
11933;SDS011;6026;48.784;9.198;2024-02-15T06:01:07;0.50;;;0.50;;
11933;SDS011;6026;48.784;9.198;2024-02-15T06:03:37;0.50;;;0.50;;
11933;SDS011;6026;48.784;9.198;2024-02-15T06:06:05;0.50;;;0.50;;
11933;SDS011;6026;48.784;9.198;2024-02-15T06:08:34;0.67;;;0.67;;
11933;SDS011;6026;48.784;9.198;2024-02-15T06:11:00;0.37;;;0.37;;
11933;SDS011;6026;48.784;9.198;2024-02-15T06:13:26;0.50;;;0.50;;
11933;SDS011;6026;48.784;9.198;2024-02-15T06:15:52;0.60;;;0.60;;
11933;SDS011;6026;48.784;9.198;2024-02-15T06:18:19;0.70;;;0.70;;
11933;SDS011;6026;48.784;9.198;2024-02-15T06:20:56;0.50;;;0.50;;
11933;SDS011;6026;48.784;9.198;2024-02-15T06:23:23;0.60;;;0.60;;
11933;SDS011;6026;48.784;9.198;2024-02-15T06:25:51;0.70;;;0.70;;
11933;SDS011;6026;48.784;9.198;2024-02-15T06:28:21;0.60;;;0.60;;
11933;SDS011;6026;48.784;9.198;2024-02-15T06:31:07;0.50;;;0.50;;
11933;SDS011;6026;48.784;9.198;2024-02-15T06:33:51;0.50;;;0.50;;
11933;SDS011;6026;48.784;9.198;2024-02-15T06:36:52;0.40;;;0.40;;
11933;SDS011;6026;48.784;9.198;2024-02-15T06:39:46;0.37;;;0.37;;
11933;SDS011;6026;48.784;9.198;2024-02-15T06:42:12;0.40;;;0.40;;
11933;SDS011;6026;48.784;9.198;2024-02-15T06:44:47;0.50;;;0.50;;
11933;SDS011;6026;48.784;9.198;2024-02-15T06:47:13;0.60;;;0.60;;
11933;SDS011;6026;48.784;9.198;2024-02-15T06:49:42;0.50;;;0.50;;
11933;SDS011;6026;48.784;9.198;2024-02-15T06:52:09;0.43;;;0.43;;
11933;SDS011;6026;48.784;9.198;2024-02-15T06:54:36;0.40;;;0.40;;
11933;SDS011;6026;48.784;9.198;2024-02-15T06:57:04;0.60;;;0.60;;
11933;SDS011;6026;48.784;9.198;2024-02-15T06:59:30;0.40;;;0.40;;
11933;SDS011;6026;48.784;9.198;2024-02-15T07:01:59;0.43;;;0.43;;
11933;SDS011;6026;48.784;9.198;2024-02-15T07:04:25;0.57;;;0.57;;
11933;SDS011;6026;48.784;9.198;2024-02-15T07:06:51;0.50;;;0.50;;
11933;SDS011;6026;48.784;9.198;2024-02-15T07:09:22;0.60;;;0.60;;
11933;SDS011;6026;48.784;9.198;2024-02-15T07:11:50;0.50;;;0.50;;
11933;SDS011;6026;48.784;9.198;2024-02-15T07:14:16;0.60;;;0.60;;
11933;SDS011;6026;48.784;9.198;2024-02-15T07:16:45;0.53;;;0.53;;
11933;SDS011;6026;48.784;9.198;2024-02-15T07:19:12;0.50;;;0.50;;
11933;SDS011;6026;48.784;9.198;2024-02-15T07:21:38;0.73;;;0.73;;
11933;SDS011;6026;48.784;9.198;2024-02-15T07:24:04;0.50;;;0.50;;
11933;SDS011;6026;48.784;9.198;2024-02-15T07:26:30;0.70;;;0.70;;
11933;SDS011;6026;48.784;9.198;2024-02-15T07:28:56;0.70;;;0.70;;
11933;SDS011;6026;48.784;9.198;2024-02-15T07:31:22;0.60;;;0.60;;
11933;SDS011;6026;48.784;9.198;2024-02-15T07:33:50;0.70;;;0.70;;
11933;SDS011;6026;48.784;9.198;2024-02-15T07:36:22;0.70;;;0.70;;
11933;SDS011;6026;48.784;9.198;2024-02-15T07:38:52;0.57;;;0.57;;
11933;SDS011;6026;48.784;9.198;2024-02-15T07:41:19;0.60;;;0.60;;
11933;SDS011;6026;48.784;9.198;2024-02-15T07:43:48;0.77;;;0.77;;
11933;SDS011;6026;48.784;9.198;2024-02-15T07:46:15;0.70;;;0.70;;
11933;SDS011;6026;48.784;9.198;2024-02-15T07:48:44;0.77;;;0.77;;
11933;SDS011;6026;48.784;9.198;2024-02-15T07:51:18;0.80;;;0.80;;
11933;SDS011;6026;48.784;9.198;2024-02-15T07:53:44;0.80;;;0.80;;
11933;SDS011;6026;48.784;9.198;2024-02-15T07:56:10;0.80;;;0.80;;
11933;SDS011;6026;48.784;9.198;2024-02-15T07:58:43;0.73;;;0.73;;
11933;SDS011;6026;48.784;9.198;2024-02-15T08:01:13;0.80;;;0.80;;
11933;SDS011;6026;48.784;9.198;2024-02-15T08:03:40;0.80;;;0.80;;
11933;SDS011;6026;48.784;9.198;2024-02-15T08:06:15;0.70;;;0.70;;
11933;SDS011;6026;48.784;9.198;2024-02-15T08:08:42;0.90;;;0.90;;
11933;SDS011;6026;48.784;9.198;2024-02-15T08:11:12;0.80;;;0.80;;
11933;SDS011;6026;48.784;9.198;2024-02-15T08:16:15;0.90;;;0.90;;
11933;SDS011;6026;48.784;9.198;2024-02-15T08:18:41;0.80;;;0.80;;
11933;SDS011;6026;48.784;9.198;2024-02-15T08:21:08;0.80;;;0.80;;
11933;SDS011;6026;48.784;9.198;2024-02-15T08:23:35;0.90;;;0.90;;
11933;SDS011;6026;48.784;9.198;2024-02-15T08:26:01;0.70;;;0.70;;
11933;SDS011;6026;48.784;9.198;2024-02-15T08:28:27;0.80;;;0.80;;
11933;SDS011;6026;48.784;9.198;2024-02-15T08:30:54;0.87;;;0.87;;
11933;SDS011;6026;48.784;9.198;2024-02-15T08:33:21;0.80;;;0.80;;
11933;SDS011;6026;48.784;9.198;2024-02-15T08:35:46;0.90;;;0.90;;
11933;SDS011;6026;48.784;9.198;2024-02-15T08:38:12;0.87;;;0.87;;
11933;SDS011;6026;48.784;9.198;2024-02-15T08:40:38;0.70;;;0.70;;
11933;SDS011;6026;48.784;9.198;2024-02-15T08:43:03;0.80;;;0.80;;
11933;SDS011;6026;48.784;9.198;2024-02-15T08:45:29;0.90;;;0.90;;
11933;SDS011;6026;48.784;9.198;2024-02-15T08:47:54;0.90;;;0.90;;
11933;SDS011;6026;48.784;9.198;2024-02-15T08:50:20;1.00;;;1.00;;
11933;SDS011;6026;48.784;9.198;2024-02-15T08:52:48;0.80;;;0.80;;
11933;SDS011;6026;48.784;9.198;2024-02-15T08:55:14;0.90;;;0.90;;
11933;SDS011;6026;48.784;9.198;2024-02-15T08:57:42;0.70;;;0.70;;
11933;SDS011;6026;48.784;9.198;2024-02-15T09:00:09;0.90;;;0.90;;
11933;SDS011;6026;48.784;9.198;2024-02-15T09:02:47;0.90;;;0.90;;
11933;SDS011;6026;48.784;9.198;2024-02-15T09:05:13;0.90;;;0.90;;
11933;SDS011;6026;48.784;9.198;2024-02-15T09:07:45;0.67;;;0.67;;
11933;SDS011;6026;48.784;9.198;2024-02-15T09:10:15;0.90;;;0.90;;
11933;SDS011;6026;48.784;9.198;2024-02-15T09:12:42;0.90;;;0.90;;
11933;SDS011;6026;48.784;9.198;2024-02-15T09:15:10;0.83;;;0.83;;
11933;SDS011;6026;48.784;9.198;2024-02-15T09:17:36;1.03;;;1.03;;
11933;SDS011;6026;48.784;9.198;2024-02-15T09:20:06;0.90;;;0.90;;
11933;SDS011;6026;48.784;9.198;2024-02-15T09:22:49;0.90;;;0.90;;
11933;SDS011;6026;48.784;9.198;2024-02-15T09:25:16;0.80;;;0.80;;
11933;SDS011;6026;48.784;9.198;2024-02-15T09:27:44;0.80;;;0.80;;
11933;SDS011;6026;48.784;9.198;2024-02-15T09:30:13;0.90;;;0.90;;
11933;SDS011;6026;48.784;9.198;2024-02-15T09:32:40;0.90;;;0.90;;
11933;SDS011;6026;48.784;9.198;2024-02-15T09:35:06;0.80;;;0.80;;
11933;SDS011;6026;48.784;9.198;2024-02-15T09:37:36;0.80;;;0.80;;
11933;SDS011;6026;48.784;9.198;2024-02-15T09:40:07;0.90;;;0.90;;
11933;SDS011;6026;48.784;9.198;2024-02-15T09:42:35;1.00;;;1.00;;
11933;SDS011;6026;48.784;9.198;2024-02-15T09:45:01;0.83;;;0.83;;
11933;SDS011;6026;48.784;9.198;2024-02-15T09:47:29;0.90;;;0.90;;
11933;SDS011;6026;48.784;9.198;2024-02-15T09:50:00;1.00;;;1.00;;
11933;SDS011;6026;48.784;9.198;2024-02-15T09:52:25;0.83;;;0.83;;
11933;SDS011;6026;48.784;9.198;2024-02-15T09:54:52;1.10;;;1.10;;
11933;SDS011;6026;48.784;9.198;2024-02-15T09:57:19;0.83;;;0.83;;
11933;SDS011;6026;48.784;9.198;2024-02-15T09:59:45;1.00;;;1.00;;
11933;SDS011;6026;48.784;9.198;2024-02-15T10:02:11;0.90;;;0.90;;
11933;SDS011;6026;48.784;9.198;2024-02-15T10:04:41;0.90;;;0.90;;
11933;SDS011;6026;48.784;9.198;2024-02-15T10:07:07;0.90;;;0.90;;
11933;SDS011;6026;48.784;9.198;2024-02-15T10:09:34;0.60;;;0.60;;
11933;SDS011;6026;48.784;9.198;2024-02-15T10:12:01;0.80;;;0.80;;
11933;SDS011;6026;48.784;9.198;2024-02-15T10:14:28;1.07;;;1.07;;
11933;SDS011;6026;48.784;9.198;2024-02-15T10:16:55;0.80;;;0.80;;
11933;SDS011;6026;48.784;9.198;2024-02-15T10:19:21;0.80;;;0.80;;
11933;SDS011;6026;48.784;9.198;2024-02-15T10:21:51;0.80;;;0.80;;
11933;SDS011;6026;48.784;9.198;2024-02-15T10:24:20;0.77;;;0.77;;
11933;SDS011;6026;48.784;9.198;2024-02-15T10:26:48;0.80;;;0.80;;
11933;SDS011;6026;48.784;9.198;2024-02-15T10:29:14;0.80;;;0.80;;
11933;SDS011;6026;48.784;9.198;2024-02-15T10:31:54;1.00;;;1.00;;
11933;SDS011;6026;48.784;9.198;2024-02-15T10:34:24;0.80;;;0.80;;
11933;SDS011;6026;48.784;9.198;2024-02-15T10:37:12;0.80;;;0.80;;
11933;SDS011;6026;48.784;9.198;2024-02-15T10:39:38;0.90;;;0.90;;
11933;SDS011;6026;48.784;9.198;2024-02-15T10:42:06;0.80;;;0.80;;
11933;SDS011;6026;48.784;9.198;2024-02-15T10:44:32;0.80;;;0.80;;
11933;SDS011;6026;48.784;9.198;2024-02-15T10:46:59;0.73;;;0.73;;
11933;SDS011;6026;48.784;9.198;2024-02-15T10:49:31;0.80;;;0.80;;
11933;SDS011;6026;48.784;9.198;2024-02-15T10:51:57;0.80;;;0.80;;
11933;SDS011;6026;48.784;9.198;2024-02-15T10:55:09;0.80;;;0.80;;
11933;SDS011;6026;48.784;9.198;2024-02-15T10:57:15;0.80;;;0.80;;
11933;SDS011;6026;48.784;9.198;2024-02-15T10:59:54;0.70;;;0.70;;
11933;SDS011;6026;48.784;9.198;2024-02-15T11:02:26;0.80;;;0.80;;
11933;SDS011;6026;48.784;9.198;2024-02-15T11:05:05;0.80;;;0.80;;
11933;SDS011;6026;48.784;9.198;2024-02-15T11:07:37;1.00;;;1.00;;
11933;SDS011;6026;48.784;9.198;2024-02-15T11:10:04;0.75;;;0.75;;
11933;SDS011;6026;48.784;9.198;2024-02-15T11:12:35;0.80;;;0.80;;
11933;SDS011;6026;48.784;9.198;2024-02-15T11:15:02;0.70;;;0.70;;
11933;SDS011;6026;48.784;9.198;2024-02-15T11:17:47;0.80;;;0.80;;
11933;SDS011;6026;48.784;9.198;2024-02-15T11:22:59;0.90;;;0.90;;
11933;SDS011;6026;48.784;9.198;2024-02-15T11:25:36;0.80;;;0.80;;
11933;SDS011;6026;48.784;9.198;2024-02-15T11:30:49;0.88;;;0.88;;
11933;SDS011;6026;48.784;9.198;2024-02-15T11:33:30;0.80;;;0.80;;
11933;SDS011;6026;48.784;9.198;2024-02-15T11:38:33;0.90;;;0.90;;
11933;SDS011;6026;48.784;9.198;2024-02-15T11:41:00;0.73;;;0.73;;
11933;SDS011;6026;48.784;9.198;2024-02-15T11:43:52;0.90;;;0.90;;
11933;SDS011;6026;48.784;9.198;2024-02-15T11:46:21;1.00;;;1.00;;
11933;SDS011;6026;48.784;9.198;2024-02-15T11:48:49;0.90;;;0.90;;
11933;SDS011;6026;48.784;9.198;2024-02-15T11:51:34;0.90;;;0.90;;
11933;SDS011;6026;48.784;9.198;2024-02-15T11:54:11;0.77;;;0.77;;
11933;SDS011;6026;48.784;9.198;2024-02-15T11:59:09;0.82;;;0.82;;
11933;SDS011;6026;48.784;9.198;2024-02-15T12:01:43;1.00;;;1.00;;
11933;SDS011;6026;48.784;9.198;2024-02-15T12:04:28;0.80;;;0.80;;
11933;SDS011;6026;48.784;9.198;2024-02-15T12:07:13;0.68;;;0.68;;
11933;SDS011;6026;48.784;9.198;2024-02-15T12:09:58;0.93;;;0.93;;
11933;SDS011;6026;48.784;9.198;2024-02-15T12:12:53;0.80;;;0.80;;
11933;SDS011;6026;48.784;9.198;2024-02-15T12:15:37;0.80;;;0.80;;
11933;SDS011;6026;48.784;9.198;2024-02-15T12:18:21;0.88;;;0.88;;
11933;SDS011;6026;48.784;9.198;2024-02-15T12:21:07;1.00;;;1.00;;
11933;SDS011;6026;48.784;9.198;2024-02-15T12:23:35;0.98;;;0.98;;
11933;SDS011;6026;48.784;9.198;2024-02-15T12:26:02;0.80;;;0.80;;
11933;SDS011;6026;48.784;9.198;2024-02-15T12:28:29;0.90;;;0.90;;
11933;SDS011;6026;48.784;9.198;2024-02-15T12:30:55;0.80;;;0.80;;
11933;SDS011;6026;48.784;9.198;2024-02-15T12:33:24;0.90;;;0.90;;
11933;SDS011;6026;48.784;9.198;2024-02-15T12:35:52;0.85;;;0.85;;
11933;SDS011;6026;48.784;9.198;2024-02-15T12:38:32;0.90;;;0.90;;
11933;SDS011;6026;48.784;9.198;2024-02-15T12:40:59;0.80;;;0.80;;
11933;SDS011;6026;48.784;9.198;2024-02-15T12:43:27;0.90;;;0.90;;
11933;SDS011;6026;48.784;9.198;2024-02-15T12:45:53;0.90;;;0.90;;
11933;SDS011;6026;48.784;9.198;2024-02-15T12:48:19;0.80;;;0.80;;
11933;SDS011;6026;48.784;9.198;2024-02-15T12:50:45;0.90;;;0.90;;
11933;SDS011;6026;48.784;9.198;2024-02-15T12:53:11;1.00;;;1.00;;
11933;SDS011;6026;48.784;9.198;2024-02-15T12:55:36;0.67;;;0.67;;
11933;SDS011;6026;48.784;9.198;2024-02-15T12:58:05;0.90;;;0.90;;
11933;SDS011;6026;48.784;9.198;2024-02-15T13:00:41;0.90;;;0.90;;
11933;SDS011;6026;48.784;9.198;2024-02-15T13:03:07;0.90;;;0.90;;
11933;SDS011;6026;48.784;9.198;2024-02-15T13:05:37;0.70;;;0.70;;
11933;SDS011;6026;48.784;9.198;2024-02-15T13:08:03;0.70;;;0.70;;
11933;SDS011;6026;48.784;9.198;2024-02-15T13:10:38;0.70;;;0.70;;
11933;SDS011;6026;48.784;9.198;2024-02-15T13:13:06;0.80;;;0.80;;
11933;SDS011;6026;48.784;9.198;2024-02-15T13:15:34;0.70;;;0.70;;
11933;SDS011;6026;48.784;9.198;2024-02-15T13:18:01;0.80;;;0.80;;
11933;SDS011;6026;48.784;9.198;2024-02-15T13:20:30;0.90;;;0.90;;
11933;SDS011;6026;48.784;9.198;2024-02-15T13:22:59;1.00;;;1.00;;
11933;SDS011;6026;48.784;9.198;2024-02-15T13:25:36;0.80;;;0.80;;
11933;SDS011;6026;48.784;9.198;2024-02-15T13:28:04;0.73;;;0.73;;
11933;SDS011;6026;48.784;9.198;2024-02-15T13:30:30;0.80;;;0.80;;
11933;SDS011;6026;48.784;9.198;2024-02-15T13:32:56;0.83;;;0.83;;
11933;SDS011;6026;48.784;9.198;2024-02-15T13:35:22;0.80;;;0.80;;
11933;SDS011;6026;48.784;9.198;2024-02-15T13:37:52;0.90;;;0.90;;
11933;SDS011;6026;48.784;9.198;2024-02-15T13:40:25;0.80;;;0.80;;
11933;SDS011;6026;48.784;9.198;2024-02-15T13:42:56;0.80;;;0.80;;
11933;SDS011;6026;48.784;9.198;2024-02-15T13:45:32;0.83;;;0.83;;
11933;SDS011;6026;48.784;9.198;2024-02-15T13:48:04;0.90;;;0.90;;
11933;SDS011;6026;48.784;9.198;2024-02-15T13:50:32;0.90;;;0.90;;
11933;SDS011;6026;48.784;9.198;2024-02-15T13:52:57;0.80;;;0.80;;
11933;SDS011;6026;48.784;9.198;2024-02-15T13:55:23;0.90;;;0.90;;
11933;SDS011;6026;48.784;9.198;2024-02-15T13:57:50;0.90;;;0.90;;
11933;SDS011;6026;48.784;9.198;2024-02-15T14:00:17;0.80;;;0.80;;
11933;SDS011;6026;48.784;9.198;2024-02-15T14:02:53;0.70;;;0.70;;
11933;SDS011;6026;48.784;9.198;2024-02-15T14:05:23;0.90;;;0.90;;
11933;SDS011;6026;48.784;9.198;2024-02-15T14:07:56;0.80;;;0.80;;
11933;SDS011;6026;48.784;9.198;2024-02-15T14:10:27;0.60;;;0.60;;
11933;SDS011;6026;48.784;9.198;2024-02-15T14:12:54;0.87;;;0.87;;
11933;SDS011;6026;48.784;9.198;2024-02-15T14:15:20;1.00;;;1.00;;
11933;SDS011;6026;48.784;9.198;2024-02-15T14:17:46;0.80;;;0.80;;
11933;SDS011;6026;48.784;9.198;2024-02-15T14:20:12;0.80;;;0.80;;
11933;SDS011;6026;48.784;9.198;2024-02-15T14:22:43;0.80;;;0.80;;
11933;SDS011;6026;48.784;9.198;2024-02-15T14:25:10;1.00;;;1.00;;
11933;SDS011;6026;48.784;9.198;2024-02-15T14:27:37;0.90;;;0.90;;
11933;SDS011;6026;48.784;9.198;2024-02-15T14:30:07;0.90;;;0.90;;
11933;SDS011;6026;48.784;9.198;2024-02-15T14:32:52;0.90;;;0.90;;
11933;SDS011;6026;48.784;9.198;2024-02-15T14:35:30;0.90;;;0.90;;
11933;SDS011;6026;48.784;9.198;2024-02-15T14:37:59;0.80;;;0.80;;
11933;SDS011;6026;48.784;9.198;2024-02-15T14:40:32;0.73;;;0.73;;
11933;SDS011;6026;48.784;9.198;2024-02-15T14:42:58;1.00;;;1.00;;
11933;SDS011;6026;48.784;9.198;2024-02-15T14:45:29;0.93;;;0.93;;
11933;SDS011;6026;48.784;9.198;2024-02-15T14:47:59;0.90;;;0.90;;
11933;SDS011;6026;48.784;9.198;2024-02-15T14:50:29;1.00;;;1.00;;
11933;SDS011;6026;48.784;9.198;2024-02-15T14:52:55;1.03;;;1.03;;
11933;SDS011;6026;48.784;9.198;2024-02-15T14:55:21;1.00;;;1.00;;
11933;SDS011;6026;48.784;9.198;2024-02-15T14:57:47;0.90;;;0.90;;
11933;SDS011;6026;48.784;9.198;2024-02-15T15:00:15;0.87;;;0.87;;
11933;SDS011;6026;48.784;9.198;2024-02-15T15:02:46;1.00;;;1.00;;
11933;SDS011;6026;48.784;9.198;2024-02-15T15:05:12;0.90;;;0.90;;
11933;SDS011;6026;48.784;9.198;2024-02-15T15:07:57;0.80;;;0.80;;
11933;SDS011;6026;48.784;9.198;2024-02-15T15:10:41;0.80;;;0.80;;
11933;SDS011;6026;48.784;9.198;2024-02-15T15:13:28;0.70;;;0.70;;
11933;SDS011;6026;48.784;9.198;2024-02-15T15:15:53;0.90;;;0.90;;
11933;SDS011;6026;48.784;9.198;2024-02-15T15:18:19;1.00;;;1.00;;
11933;SDS011;6026;48.784;9.198;2024-02-15T15:20:44;0.87;;;0.87;;
11933;SDS011;6026;48.784;9.198;2024-02-15T15:23:10;1.00;;;1.00;;